• Join FlightAware (Why Join?)
  • Login
  • US Flag 
10:22AM EDT


 

Airport Tracker/Info


-or-


 

Live Flight TrackerFlight Track Log ✈ GJS3649 ✈ 16-Oct-2013 ✈ KORD - KSYR

Flight Track Log - Related Links

Times and Time Zones

All times are in EDT time to prevent confusion due to time zone crossing. See the GJS3649 flight status page for this flight to view local times or setup timezone preferences in your user account.

Time Position Orientation Groundspeed Altitude Reporting Facility
EDT Latitude Longitude Course Direction KTS MPH feet Rate Location/Type
09:17PM 42.0000 -87.9333 37° Northeast 152 175 1,500  Level Chicago TRACON
09:18PM 42.0333 -87.9000 37° Northeast 220 253 3,400 1,980 Climbing Chicago TRACON
09:19PM 42.1331 -87.8083 34° Northeast 255 293 7,200 2,280 Climbing Chicago Center
09:21PM 42.1586 -87.7092 71° East 282 325 10,000 2,460 Climbing Chicago Center
09:22PM 42.1781 -87.6036 76° East 289 333 12,300 1,800 Climbing Chicago Center
09:23PM 42.2014 -87.4814 76° East 328 377 13,800 1,440 Climbing Chicago Center
09:24PM 42.2269 -87.3422 76° East 375 432 15,300 1,620 Climbing Chicago Center
09:25PM 42.2608 -87.1600 76° East 411 473 17,200 1,620 Climbing Chicago Center
09:26PM 42.2822 -86.9953 80° East 440 506 18,700 1,440 Climbing Chicago Center
09:27PM 42.2878 -86.8219 87° East 458 527 20,200 1,500 Climbing Chicago Center
09:28PM 42.2969 -86.6239 86° East 473 544 21,900 1,500 Climbing Chicago Center
09:29PM 42.3025 -86.4525 87° East 481 554 23,300 1,380 Climbing Chicago Center
09:30PM 42.3089 -86.2708 87° East 489 563 24,800 1,440 Climbing Chicago Center
09:31PM 42.3153 -86.0858 87° East 495 570 26,300 1,440 Climbing Chicago Center
09:32PM 42.3131 -85.9006 91° East 497 572 27,800 1,260 Climbing Chicago Center
09:33PM 42.3094 -85.6747 91° East 503 579 29,000 1,020 Climbing Chicago Center
09:34PM 42.3078 -85.4811 91° East 514 592 30,000 780 Climbing Chicago Center
09:35PM 42.3050 -85.2844 91° East 523 602 30,700 660 Climbing Chicago Center
09:36PM 42.3011 -85.0833 91° East 535 616 31,400 720 Climbing Chicago Center
09:37PM 42.2972 -84.8808 91° East 540 621 32,300 720 Climbing Chicago Center
09:38PM 42.2903 -84.6356 92° East 547 629 33,000 300 Climbing Chicago Center
09:39PM 42.2917 -84.4272 89° East 555 639 33,000  Level Chicago Center
09:40PM 42.3139 -84.2836 78° East 567 652 33,000  Level Cleveland Center
09:41PM 42.3422 -84.0714 80° East 573 659 33,000  Level Cleveland Center
09:42PM 42.3714 -83.8592 79° East 573 659 33,000  Level Cleveland Center
09:43PM 42.4011 -83.6447 79° East 574 661 33,000  Level Cleveland Center
09:44PM 42.4139 -83.4317 85° East 574 661 33,000  Level Cleveland Center
09:45PM 42.4211 -83.2031 87° East 574 661 33,000  Level Cleveland Center
09:46PM 42.4281 -82.9867 87° East 573 659 33,000  Level Cleveland Center
09:47PM 42.4353 -82.7692 87° East 576 663 33,000  Level Cleveland Center
09:48PM 42.4406 -82.5528 88° East 577 664 33,000  Level Cleveland Center
09:49PM 42.4483 -82.2911 88° East 580 667 33,000  Level Cleveland Center
09:50PM 42.4536 -82.0722 88° East 581 669 33,000  Level Cleveland Center
09:51PM 42.4592 -81.8544 88° East 580 667 33,000  Level Cleveland Center
09:52PM 42.4639 -81.6375 88° East 581 669 33,000  Level Cleveland Center
09:53PM 42.4686 -81.4150 88° East 584 672 33,000  Level Cleveland Center
09:54PM 42.4731 -81.1944 88° East 581 669 33,000  Level Cleveland Center
09:55PM 42.4758 -80.9728 89° East 582 670 33,000  Level Cleveland Center
09:56PM 42.4792 -80.7517 89° East 582 670 33,000  Level Cleveland Center
09:57PM 42.4831 -80.5333 89° East 576 663 33,000  Level Cleveland Center
09:58PM 42.4856 -80.3125 89° East 578 665 33,000 -420 Level Cleveland Center
09:59PM 42.4853 -80.0897 90° East 583 671 32,200 -840 Descending Cleveland Center
10:00PM 42.4894 -79.8694 88° East 574 661 31,300 -840 Descending Cleveland Center
10:01PM 42.4897 -79.6569 90° East 566 651 30,600 -840 Descending Cleveland Center
10:02PM 42.4914 -79.4028 89° East 565 650 29,600 -900 Descending Cleveland Center
10:03PM 42.5314 -79.2019 75° East 555 639 28,800 -840 Descending Cleveland Center
10:04PM 42.5708 -79.0025 75° East 549 632 28,000 -840 Descending Cleveland Center
10:05PM 42.6106 -78.8042 75° East 547 629 27,200 -540 Descending Cleveland Center
10:06PM 42.6497 -78.6072 75° East 543 625 27,000 -120 Descending Cleveland Center
10:07PM 42.6875 -78.4142 75° East 530 610 27,000  Level Cleveland Center
10:08PM 42.7250 -78.2169 75° East 542 624 27,000  Level Cleveland Center
10:09PM 42.7622 -78.0222 75° East 531 611 27,000  Level Cleveland Center
10:10PM 42.7992 -77.8253 76° East 531 611 27,000 -300 Level Cleveland Center
10:12PM 42.8369 -77.6289 75° East 525 604 26,500 -1,560 Descending Cleveland Center
10:13PM 42.8736 -77.4328 76° East 527 606 23,900 -3,000 Descending Cleveland Center
10:14PM 42.9078 -77.2483 76° East 506 582 20,400 -3,600 Descending Cleveland Center
10:15PM 42.9456 -77.0450 76° East 459 528 16,600 -3,120 Descending Cleveland Center
10:16PM 42.9722 -76.8958 76° East 413 475 14,100 -2,400 Descending Cleveland Center
10:17PM 42.9992 -76.7575 75° East 385 443 11,700 -2,400 Descending Cleveland Center
10:18PM 43.0336 -76.6297 70° East 346 398 9,300 -2,400 Descending Cleveland Center
10:19PM 43.0628 -76.5272 69° East 320 368 7,000 -2,100 Descending Boston Center
10:20PM 43.0919 -76.4097 71° East 301 346 5,000 -1,560 Descending Boston Center
10:21PM 43.1033 -76.3194 80° East 248 285 3,900 -1,500 Descending Boston Center
10:22PM 43.1042 -76.2342 89° East 219 252 2,200 -1,380 Descending Boston Center
10:23PM 43.1064 -76.1689 87° East 151 174 1,100 -480 Descending Boston Center
10:26PM 43.1119 -76.1047 83° East 59 68 400 -240 Descending Cleveland Center